Time;durP1;ratioP1;P1;durP2;ratioP2;P2;SDS_P1;SDS_P2;PMS_P1;PMS_P2;Temp;Humidity;BMP_temperature;BMP_pressure;BME280_temperature;BME280_humidity;BME280_pressure;Samples;Min_cycle;Max_cycle;Signal;HPM_P1;HPM_P2
2022/03/14 00:02:18;;;;;;;;;;;;;;;2.99;38.09;102042.62;1635869;86;20197;-78
2022/03/14 00:04:45;;;;;;;;;;;;;;;2.96;38.59;102043.78;1658115;86;20189;-78
2022/03/14 00:07:11;;;;;;;;;;;;;;;2.95;38.49;102035.24;1638468;86;20221;-78
2022/03/14 00:09:37;;;;;;;;;;;;;;;2.93;38.52;102040.70;1656093;84;20219;-78
2022/03/14 00:12:07;;;;;;;;;;;;;;;2.92;38.83;102041.92;1650529;85;20248;-78
2022/03/14 00:14:31;;;;;;;;;;;;;;;2.90;38.74;102040.98;1653207;86;20151;-77
2022/03/14 00:16:57;;;;;;;;;;;;;;;2.88;38.59;102041.34;1658105;84;20214;-78
2022/03/14 00:19:25;;;;;;;;;;;;;;;2.86;38.70;102045.52;1636828;86;20180;-78
2022/03/14 00:21:51;;;;;;;;;;;;;;;2.84;38.66;102044.59;1614642;87;20134;-78
2022/03/14 00:24:16;;;;;;;;;;;;;;;2.81;38.52;102047.02;1618878;86;20214;-78
2022/03/14 00:26:42;;;;;;;;;;;;;;;2.79;38.83;102053.34;1630544;87;20780;-78
2022/03/14 00:29:08;;;;;;;;;;;;;;;2.77;38.93;102052.83;1638669;87;20843;-78
2022/03/14 00:31:35;;;;;;;;;;;;;;;2.74;39.24;102048.88;1643628;86;20199;-78
2022/03/14 00:34:01;;;;;;;;;;;;;;;2.71;38.96;102050.03;1657888;86;20138;-78
2022/03/14 00:36:27;;;;;;;;;;;;;;;2.67;39.17;102047.77;1626324;87;20155;-78
2022/03/14 00:38:54;;;;;;;;;;;;;;;2.64;39.41;102048.92;1617178;86;20151;-78
2022/03/14 00:41:21;;;;;;;;;;;;;;;2.62;39.10;102060.75;1640830;86;20531;-78
2022/03/14 00:43:48;;;;;;;;;;;;;;;2.59;39.17;102055.56;1636576;86;20753;-78
2022/03/14 00:46:16;;;;;;;;;;;;;;;2.58;39.19;102061.08;1638216;86;20177;-78
2022/03/14 00:48:45;;;;;;;;;;;;;;;2.56;39.33;102057.99;1640967;86;20188;-78
2022/03/14 00:51:10;;;;;;;;;;;;;;;2.53;39.39;102057.47;1640026;86;20609;-78
2022/03/14 00:53:37;;;;;;;;;;;;;;;2.51;39.33;102060.36;1614519;87;20123;-78
2022/03/14 00:56:07;;;;;;;;;;;;;;;2.50;39.34;102057.34;1628055;86;20477;-78
2022/03/14 00:58:34;;;;;;;;;;;;;;;2.48;39.43;102059.37;1605106;89;20801;-78
2022/03/14 01:01:01;;;;;;;;;;;;;;;2.45;39.88;102063.08;1619659;87;20613;-78
2022/03/14 01:03:27;;;;;;;;;;;;;;;2.43;39.70;102062.14;1640523;87;20180;-78
2022/03/14 01:05:52;;;;;;;;;;;;;;;2.40;39.56;102062.02;1617541;86;20759;-78
2022/03/14 01:08:19;;;;;;;;;;;;;;;2.39;39.86;102057.31;1614292;87;20198;-78
2022/03/14 01:10:48;;;;;;;;;;;;;;;2.35;39.61;102053.30;1614207;87;20952;-78
2022/03/14 01:13:14;;;;;;;;;;;;;;;2.31;40.02;102059.96;1629601;86;20506;-78
2022/03/14 01:15:40;;;;;;;;;;;;;;;2.27;39.86;102052.98;1638213;86;20199;-78
2022/03/14 01:18:06;;;;;;;;;;;;;;;2.24;39.91;102055.41;1618381;87;20418;-78
2022/03/14 01:20:33;;;;;;;;;;;;;;;2.22;40.49;102051.52;1621874;86;20558;-78
2022/03/14 01:23:02;;;;;;;;;;;;;;;2.19;40.38;102045.02;1636835;86;20561;-78
2022/03/14 01:25:28;;;;;;;;;;;;;;;2.16;40.02;102047.44;1614094;87;20130;-78
2022/03/14 01:27:54;;;;;;;;;;;;;;;2.13;40.13;102052.83;1615248;86;20753;-78
2022/03/14 01:30:23;;;;;;;;;;;;;;;2.11;40.32;102043.83;1640640;86;20503;-78
2022/03/14 01:32:49;;;;;;;;;;;;;;;2.08;40.32;102048.80;1625425;86;20187;-78
2022/03/14 01:35:17;;;;;;;;;;;;;;;2.04;40.48;102043.55;1611685;86;20890;-78
2022/03/14 01:37:46;;;;;;;;;;;;;;;2.01;40.51;102047.25;1625288;87;20575;-78
2022/03/14 01:40:13;;;;;;;;;;;;;;;1.97;40.60;102048.39;1605696;87;20122;-78
2022/03/14 01:42:39;;;;;;;;;;;;;;;1.95;40.79;102054.23;1627371;86;20450;-78
2022/03/14 01:45:05;;;;;;;;;;;;;;;1.91;40.83;102056.19;1627275;87;20764;-78
2022/03/14 01:47:33;;;;;;;;;;;;;;;1.86;40.76;102053.44;1604306;88;20562;-78
2022/03/14 01:49:59;;;;;;;;;;;;;;;1.81;40.97;102058.75;1600855;89;20431;-78
2022/03/14 01:52:25;;;;;;;;;;;;;;;1.79;41.31;102063.31;1618215;86;20235;-78
2022/03/14 01:54:52;;;;;;;;;;;;;;;1.75;40.92;102062.31;1605836;88;20590;-78
2022/03/14 01:57:18;;;;;;;;;;;;;;;1.73;41.09;102071.58;1599908;88;20605;-78
2022/03/14 01:59:44;;;;;;;;;;;;;;;1.69;41.43;102068.42;1621686;86;20570;-78
2022/03/14 02:02:11;;;;;;;;;;;;;;;1.65;41.22;102067.41;1617465;87;20370;-78
2022/03/14 02:04:37;;;;;;;;;;;;;;;1.61;41.22;102071.91;1599612;88;20123;-78
2022/03/14 02:07:04;;;;;;;;;;;;;;;1.58;41.51;102074.33;1612483;86;20890;-78
2022/03/14 02:09:30;;;;;;;;;;;;;;;1.55;41.34;102065.70;1626013;87;20185;-78
2022/03/14 02:12:00;;;;;;;;;;;;;;;1.51;41.51;102063.42;1611730;87;20448;-78
2022/03/14 02:14:26;;;;;;;;;;;;;;;1.48;41.60;102063.69;1610840;89;20217;-77
2022/03/14 02:16:52;;;;;;;;;;;;;;;1.44;41.40;102064.36;1607001;87;20176;-78
2022/03/14 02:19:18;;;;;;;;;;;;;;;1.39;41.45;102059.46;1611204;89;20556;-78
2022/03/14 02:21:45;;;;;;;;;;;;;;;1.35;41.62;102053.36;1612021;89;20151;-78
2022/03/14 02:24:11;;;;;;;;;;;;;;;1.30;41.69;102055.70;1609029;87;20470;-78
2022/03/14 02:26:44;;;;;;;;;;;;;;;1.28;41.77;102057.30;1587936;89;20221;-78
2022/03/14 02:29:07;;;;;;;;;;;;;;;1.26;42.01;102058.04;1559614;92;20222;-78
2022/03/14 02:31:36;;;;;;;;;;;;;;;1.24;41.95;102059.24;1601738;87;20532;-78
2022/03/14 02:34:04;;;;;;;;;;;;;;;1.23;41.89;102060.05;1607365;89;20160;-78
2022/03/14 02:36:30;;;;;;;;;;;;;;;1.23;42.27;102064.27;1592005;90;20648;-78
2022/03/14 02:38:56;;;;;;;;;;;;;;;1.21;41.91;102064.20;1589691;88;20654;-78
2022/03/14 02:41:25;;;;;;;;;;;;;;;1.22;42.46;102059.98;1593182;89;20809;-78
2022/03/14 02:43:51;;;;;;;;;;;;;;;1.20;42.23;102062.45;1593796;89;20620;-78
2022/03/14 02:46:18;;;;;;;;;;;;;;;1.19;42.37;102061.98;1590532;89;20213;-78
2022/03/14 02:48:44;;;;;;;;;;;;;;;1.17;42.25;102059.77;1593237;88;21037;-78
2022/03/14 02:51:10;;;;;;;;;;;;;;;1.15;42.59;102062.65;1673308;85;20137;-78
2022/03/14 02:53:36;;;;;;;;;;;;;;;1.15;42.46;102055.41;1641022;86;20238;-77
2022/03/14 02:56:02;;;;;;;;;;;;;;;1.14;42.68;102062.58;1660622;85;20317;-77
2022/03/14 02:58:32;;;;;;;;;;;;;;;1.13;42.59;102061.70;1652319;86;20516;-78
2022/03/14 03:01:00;;;;;;;;;;;;;;;1.12;42.62;102061.23;1634888;86;20225;-78
2022/03/14 03:03:27;;;;;;;;;;;;;;;1.11;42.69;102057.34;1638362;85;20268;-78
2022/03/14 03:05:54;;;;;;;;;;;;;;;1.09;42.36;102061.50;1638685;86;20255;-78
2022/03/14 03:08:21;;;;;;;;;;;;;;;1.08;42.69;102060.63;1635500;86;20172;-78
2022/03/14 03:10:47;;;;;;;;;;;;;;;1.05;42.73;102059.61;1660754;85;20159;-77
2022/03/14 03:13:15;;;;;;;;;;;;;;;1.03;42.75;102059.58;1704094;82;20215;-77
2022/03/14 03:15:41;;;;;;;;;;;;;;;1.02;42.84;102061.65;1694201;84;20091;-78
2022/03/14 03:18:09;;;;;;;;;;;;;;;1.01;43.14;102064.13;1705842;84;20099;-78
2022/03/14 03:20:35;;;;;;;;;;;;;;;0.98;43.07;102064.45;1654445;85;20167;-78
2022/03/14 03:23:01;;;;;;;;;;;;;;;0.97;43.12;102066.53;1659495;86;20207;-78
2022/03/14 03:25:27;;;;;;;;;;;;;;;0.96;43.16;102067.34;1662152;85;20468;-78
2022/03/14 03:27:53;;;;;;;;;;;;;;;0.96;43.12;102067.73;1692884;84;20110;-78
2022/03/14 03:30:19;;;;;;;;;;;;;;;0.95;43.22;102077.45;1689767;82;20192;-78
2022/03/14 03:32:45;;;;;;;;;;;;;;;0.94;43.27;102083.34;1680641;82;20188;-78
2022/03/14 03:35:11;;;;;;;;;;;;;;;0.93;43.26;102081.59;1677290;84;20501;-78
2022/03/14 03:37:37;;;;;;;;;;;;;;;0.91;43.17;102075.16;1635335;86;20259;-77
2022/03/14 03:40:03;;;;;;;;;;;;;;;0.91;43.56;102078.11;1638271;85;20178;-77
2022/03/14 03:42:31;;;;;;;;;;;;;;;0.89;43.53;102071.67;1687732;84;20126;-78
2022/03/14 03:44:57;;;;;;;;;;;;;;;0.87;43.29;102074.55;1644384;86;20194;-78
2022/03/14 03:47:24;;;;;;;;;;;;;;;0.85;43.37;102073.59;1656777;85;20210;-77
2022/03/14 03:49:50;;;;;;;;;;;;;;;0.84;43.60;102074.80;1656363;86;20252;-77
2022/03/14 03:52:16;;;;;;;;;;;;;;;0.82;43.67;102073.86;1658821;85;20211;-78
2022/03/14 03:54:42;;;;;;;;;;;;;;;0.79;43.69;102069.89;1660203;85;20190;-78
2022/03/14 03:57:07;;;;;;;;;;;;;;;0.79;43.84;102081.35;1659154;85;20566;-77
2022/03/14 03:59:33;;;;;;;;;;;;;;;0.77;43.84;102076.59;1660203;86;20171;-78
2022/03/14 04:02:02;;;;;;;;;;;;;;;0.76;43.88;102074.84;1704041;84;20210;-78
2022/03/14 04:04:30;;;;;;;;;;;;;;;0.75;43.98;102073.97;1642808;85;20212;-77
2022/03/14 04:06:57;;;;;;;;;;;;;;;0.73;44.02;102079.39;1643801;86;20211;-78
2022/03/14 04:09:24;;;;;;;;;;;;;;;0.72;44.02;102081.86;1660555;85;20231;-78
2022/03/14 04:11:50;;;;;;;;;;;;;;;0.69;44.17;102081.31;1651789;85;20439;-78
2022/03/14 04:14:17;;;;;;;;;;;;;;;0.68;44.24;102081.24;1645484;86;20253;-77
2022/03/14 04:16:43;;;;;;;;;;;;;;;0.64;44.11;102079.83;1649177;86;20236;-78
2022/03/14 04:19:09;;;;;;;;;;;;;;;0.63;44.27;102075.53;1690292;82;20432;-78
2022/03/14 04:21:35;;;;;;;;;;;;;;;0.62;44.18;102071.24;1671788;84;20206;-78
2022/03/14 04:24:04;;;;;;;;;;;;;;;0.59;43.86;102078.73;1660711;85;20231;-78
2022/03/14 04:26:29;;;;;;;;;;;;;;;0.57;44.90;102075.64;1684266;83;20361;-77
2022/03/14 04:28:55;;;;;;;;;;;;;;;0.55;44.44;102075.97;1711413;82;20197;-78
2022/03/14 04:31:21;;;;;;;;;;;;;;;0.53;44.64;102078.44;1633861;86;20213;-78
2022/03/14 04:33:47;;;;;;;;;;;;;;;0.53;44.66;102083.52;1649518;85;20261;-78
2022/03/14 04:36:14;;;;;;;;;;;;;;;0.54;44.51;102086.95;1641318;86;20169;-78
2022/03/14 04:38:39;;;;;;;;;;;;;;;0.54;44.15;102086.95;1639508;84;20663;-78
2022/03/14 04:41:05;;;;;;;;;;;;;;;0.54;44.63;102092.03;1641251;86;20214;-78
2022/03/14 04:43:31;;;;;;;;;;;;;;;0.53;44.44;102094.98;1631685;86;20179;-78
2022/03/14 04:45:57;;;;;;;;;;;;;;;0.53;44.82;102094.98;1621557;87;20173;-78
2022/03/14 04:48:23;;;;;;;;;;;;;;;0.53;44.43;102097.52;1638346;86;20251;-78
2022/03/14 04:50:50;;;;;;;;;;;;;;;0.52;44.76;102099.59;1640937;86;20193;-77
2022/03/14 04:53:17;;;;;;;;;;;;;;;0.52;44.73;102107.66;1637341;86;20200;-76
2022/03/14 04:55:44;;;;;;;;;;;;;;;0.49;44.99;102108.78;1614345;88;20207;-77
2022/03/14 04:58:14;;;;;;;;;;;;;;;0.46;44.61;102101.88;1631366;86;20188;-77
2022/03/14 05:00:41;;;;;;;;;;;;;;;0.46;45.01;102106.96;1634903;86;20232;-77
2022/03/14 05:03:08;;;;;;;;;;;;;;;0.44;44.94;102102.20;1634826;86;20209;-77
2022/03/14 05:05:34;;;;;;;;;;;;;;;0.42;44.85;102104.19;1636737;86;20573;-77
2022/03/14 05:08:00;;;;;;;;;;;;;;;0.41;45.19;102108.41;1634842;86;20184;-77
2022/03/14 05:10:27;;;;;;;;;;;;;;;0.40;45.09;102109.61;1637734;86;20195;-77
2022/03/14 05:12:52;;;;;;;;;;;;;;;0.39;45.09;102106.19;1640491;86;20192;-77
2022/03/14 05:15:18;;;;;;;;;;;;;;;0.40;45.20;102107.06;1637766;86;20350;-76
2022/03/14 05:17:45;;;;;;;;;;;;;;;0.39;45.15;102112.55;1638088;86;20212;-75
2022/03/14 05:20:12;;;;;;;;;;;;;;;0.38;44.95;102109.92;1635366;86;20221;-76
2022/03/14 05:22:43;;;;;;;;;;;;;;;0.36;45.19;102108.58;1628975;86;20199;-76
2022/03/14 05:25:10;;;;;;;;;;;;;;;0.35;44.94;102113.59;1627500;87;20564;-76
2022/03/14 05:27:37;;;;;;;;;;;;;;;0.34;45.05;102112.72;1633182;86;20236;-75
2022/03/14 05:30:06;;;;;;;;;;;;;;;0.31;45.57;102111.30;1640692;86;20188;-75
2022/03/14 05:32:31;;;;;;;;;;;;;;;0.29;45.18;102107.41;1640660;87;20113;-75
2022/03/14 05:34:57;;;;;;;;;;;;;;;0.30;45.52;102115.91;1616120;87;20545;-75
2022/03/14 05:37:25;;;;;;;;;;;;;;;0.29;45.54;102109.08;1642312;84;20100;-75
2022/03/14 05:39:50;;;;;;;;;;;;;;;0.29;45.41;102109.08;1638337;86;20160;-75
2022/03/14 05:42:16;;;;;;;;;;;;;;;0.32;45.72;102107.95;1638557;86;20189;-75
2022/03/14 05:44:45;;;;;;;;;;;;;;;0.35;45.88;102109.78;1642081;86;20159;-75
2022/03/14 05:47:12;;;;;;;;;;;;;;;0.37;45.84;102109.45;1635903;86;20093;-75
2022/03/14 05:49:37;;;;;;;;;;;;;;;0.39;45.90;102110.41;1631088;86;20201;-75
2022/03/14 05:52:06;;;;;;;;;;;;;;;0.43;46.14;102116.12;1635457;86;20175;-75
2022/03/14 05:54:34;;;;;;;;;;;;;;;0.47;46.20;102111.66;1641011;86;20401;-75
2022/03/14 05:56:59;;;;;;;;;;;;;;;0.54;46.20;102118.75;1641225;86;20168;-75
2022/03/14 05:59:25;;;;;;;;;;;;;;;0.62;46.29;102109.81;1627712;87;20802;-75
2022/03/14 06:01:51;;;;;;;;;;;;;;;0.73;46.34;102113.75;1629508;87;20201;-75
2022/03/14 06:04:18;;;;;;;;;;;;;;;0.87;46.12;102111.47;1632521;85;20211;-76
2022/03/14 06:06:43;;;;;;;;;;;;;;;1.03;46.22;102118.16;1635797;86;20473;-75
2022/03/14 06:09:09;;;;;;;;;;;;;;;1.23;46.06;102113.95;1627977;87;20179;-75
2022/03/14 06:11:38;;;;;;;;;;;;;;;1.44;46.54;102114.93;1639155;86;20266;-75
2022/03/14 06:14:02;;;;;;;;;;;;;;;1.68;46.21;102111.30;1639210;86;20492;-75
2022/03/14 06:16:28;;;;;;;;;;;;;;;1.93;46.07;102120.48;1621953;86;20274;-75
2022/03/14 06:18:54;;;;;;;;;;;;;;;2.18;46.11;102114.72;1640080;86;20199;-76
2022/03/14 06:21:20;;;;;;;;;;;;;;;2.40;46.28;102117.77;1638608;86;20191;-76
2022/03/14 06:23:46;;;;;;;;;;;;;;;2.61;46.05;102112.23;1641484;86;20274;-76
2022/03/14 06:26:13;;;;;;;;;;;;;;;2.86;46.24;102117.91;1641480;86;20191;-76
2022/03/14 06:28:39;;;;;;;;;;;;;;;3.08;46.32;102119.62;1648534;86;20133;-76
2022/03/14 06:31:04;;;;;;;;;;;;;;;3.31;45.97;102116.23;1638503;86;20259;-75
2022/03/14 06:33:30;;;;;;;;;;;;;;;3.52;45.93;102111.05;1634472;86;20184;-75
2022/03/14 06:35:59;;;;;;;;;;;;;;;3.68;46.22;102113.72;1635506;86;20208;-75
2022/03/14 06:38:24;;;;;;;;;;;;;;;3.82;46.15;102115.50;1642322;86;20223;-75
2022/03/14 06:40:50;;;;;;;;;;;;;;;3.97;46.18;102113.48;1608273;87;20138;-75
2022/03/14 06:43:17;;;;;;;;;;;;;;;4.12;46.18;102115.30;1607344;87;20504;-76
2022/03/14 06:45:45;;;;;;;;;;;;;;;4.28;46.19;102118.80;1585209;89;20146;-76
2022/03/14 06:48:12;;;;;;;;;;;;;;;4.45;46.11;102122.34;1597253;88;20105;-76
2022/03/14 06:50:37;;;;;;;;;;;;;;;4.59;46.17;102125.81;1583981;88;20175;-76
2022/03/14 06:53:03;;;;;;;;;;;;;;;4.80;46.29;102122.17;1606341;87;21129;-76
2022/03/14 06:55:29;;;;;;;;;;;;;;;5.01;46.28;102120.28;1584441;88;20187;-76
2022/03/14 06:57:55;;;;;;;;;;;;;;;5.21;46.15;102125.58;1584445;88;20172;-77
2022/03/14 07:00:21;;;;;;;;;;;;;;;5.44;46.38;102130.11;1599452;87;20209;-77
2022/03/14 07:02:47;;;;;;;;;;;;;;;5.76;46.33;102125.00;1595966;88;20233;-77
2022/03/14 07:05:21;;;;;;;;;;;;;;;6.06;46.27;102110.88;1592020;88;20560;-77
2022/03/14 07:07:48;;;;;;;;;;;;;;;6.30;46.08;102124.33;1633132;85;20184;-77
2022/03/14 07:10:14;;;;;;;;;;;;;;;6.36;46.03;102122.33;1641492;85;20160;-77
2022/03/14 07:12:45;;;;;;;;;;;;;;;6.44;46.11;102125.97;1640387;85;20169;-77
2022/03/14 07:15:16;;;;;;;;;;;;;;;6.68;46.11;102121.84;1632854;85;20243;-76
2022/03/14 07:17:43;;;;;;;;;;;;;;;6.79;45.98;102117.80;1607135;87;20206;-76
2022/03/14 07:20:11;;;;;;;;;;;;;;;6.82;45.98;102130.73;1605562;87;20600;-76
2022/03/14 07:22:54;;;;;;;;;;;;;;;6.88;46.01;102138.17;1601217;87;20127;-76
2022/03/14 07:25:22;;;;;;;;;;;;;;;7.00;46.11;102127.30;1647084;85;20550;-76
2022/03/14 07:27:47;;;;;;;;;;;;;;;7.06;46.00;102124.87;1632825;85;20158;-76
2022/03/14 07:30:14;;;;;;;;;;;;;;;7.10;46.06;102132.23;1628215;85;20163;-76
2022/03/14 07:32:40;;;;;;;;;;;;;;;7.08;46.12;102128.77;1636430;85;20555;-76
2022/03/14 07:35:07;;;;;;;;;;;;;;;7.13;45.99;102124.59;1642785;85;20096;-76
2022/03/14 07:37:33;;;;;;;;;;;;;;;7.31;46.20;102129.70;1634625;85;20477;-77
2022/03/14 07:39:58;;;;;;;;;;;;;;;7.47;45.89;102126.16;1639992;85;20833;-76
2022/03/14 07:42:24;;;;;;;;;;;;;;;7.59;46.14;102127.70;1641267;85;20208;-76
2022/03/14 07:44:50;;;;;;;;;;;;;;;7.72;46.07;102124.55;1645572;85;20137;-77
2022/03/14 07:47:16;;;;;;;;;;;;;;;7.82;46.26;102134.16;1642882;85;20117;-76
2022/03/14 07:49:43;;;;;;;;;;;;;;;7.89;46.26;102124.42;1652306;85;20130;-77
2022/03/14 07:52:09;;;;;;;;;;;;;;;7.98;46.09;102123.31;1638617;84;20123;-77
2022/03/14 07:54:35;;;;;;;;;;;;;;;8.18;46.19;102126.68;1641959;85;20170;-77
2022/03/14 07:57:01;;;;;;;;;;;;;;;8.37;46.12;102124.01;1642322;85;20511;-76
2022/03/14 07:59:26;;;;;;;;;;;;;;;8.53;46.26;102124.30;1648214;85;20175;-76
2022/03/14 08:01:52;;;;;;;;;;;;;;;8.70;46.34;102128.86;1640405;85;20245;-77
2022/03/14 08:04:18;;;;;;;;;;;;;;;8.82;46.24;102124.77;1646096;85;20166;-76
2022/03/14 08:06:45;;;;;;;;;;;;;;;8.88;46.34;102126.12;1641630;85;20091;-76
2022/03/14 08:09:11;;;;;;;;;;;;;;;8.83;46.34;102130.79;1640939;85;20096;-76
2022/03/14 08:11:38;;;;;;;;;;;;;;;8.93;46.54;102132.64;1636113;85;20129;-76
2022/03/14 08:14:05;;;;;;;;;;;;;;;9.04;46.54;102126.34;1641108;85;420242;-76
2022/03/14 08:16:31;;;;;;;;;;;;;;;9.03;46.40;102134.52;1641625;85;20125;-75
2022/03/14 08:18:56;;;;;;;;;;;;;;;8.89;46.17;102131.72;1647140;85;20179;-75
2022/03/14 08:21:23;;;;;;;;;;;;;;;8.81;46.06;102129.90;1644484;85;20109;-76
2022/03/14 08:23:50;;;;;;;;;;;;;;;8.80;46.02;102130.33;1641931;85;20128;-76
2022/03/14 08:26:17;;;;;;;;;;;;;;;8.77;45.87;102124.25;1655587;85;20108;-76
2022/03/14 08:28:44;;;;;;;;;;;;;;;8.73;45.85;102123.75;1636018;85;20529;-76
2022/03/14 08:31:14;;;;;;;;;;;;;;;8.72;45.60;102122.02;1654336;85;20092;-76
2022/03/14 08:33:41;;;;;;;;;;;;;;;8.75;45.59;102118.20;1651297;85;20133;-76
2022/03/14 08:36:08;;;;;;;;;;;;;;;8.82;45.44;102122.19;1646722;83;20138;-76
2022/03/14 08:38:34;;;;;;;;;;;;;;;8.84;45.53;102128.63;1701019;82;20092;-76
2022/03/14 08:41:00;;;;;;;;;;;;;;;8.86;45.32;102134.25;1679373;82;20121;-76
2022/03/14 08:43:26;;;;;;;;;;;;;;;8.85;45.23;102129.94;1667262;85;20191;-76
2022/03/14 08:45:54;;;;;;;;;;;;;;;8.82;45.23;102126.48;1699602;82;20107;-76
2022/03/14 08:48:19;;;;;;;;;;;;;;;8.82;45.12;102122.61;1701580;82;20119;-76
2022/03/14 08:50:48;;;;;;;;;;;;;;;8.75;45.20;102115.63;1692959;82;20108;-75
2022/03/14 08:53:14;;;;;;;;;;;;;;;8.67;44.76;102118.08;1694838;82;20163;-75
2022/03/14 08:55:40;;;;;;;;;;;;;;;8.59;45.05;102119.66;1694432;82;20105;-76
2022/03/14 08:58:05;;;;;;;;;;;;;;;8.46;44.59;102114.72;1705131;82;20127;-76
2022/03/14 09:00:31;;;;;;;;;;;;;;;8.39;44.79;102117.17;1696276;82;20536;-76
2022/03/14 09:02:57;;;;;;;;;;;;;;;8.34;44.80;102119.67;1703643;82;20790;-76
2022/03/14 09:05:23;;;;;;;;;;;;;;;8.31;44.63;102122.19;1702411;82;20138;-75
2022/03/14 09:07:49;;;;;;;;;;;;;;;8.26;44.37;102122.11;1692297;82;20238;-76
2022/03/14 09:10:16;;;;;;;;;;;;;;;8.21;44.58;102129.31;1698206;82;20119;-76
2022/03/14 09:12:42;;;;;;;;;;;;;;;8.15;44.38;102121.05;1696300;82;20127;-76
2022/03/14 09:15:10;;;;;;;;;;;;;;;8.11;44.34;102119.67;1706333;82;20126;-76
2022/03/14 09:17:49;;;;;;;;;;;;;;;8.13;44.40;102116.70;1694182;82;20123;-75
2022/03/14 09:20:16;;;;;;;;;;;;;;;8.11;44.19;102128.70;1698472;82;20453;-75
2022/03/14 09:22:44;;;;;;;;;;;;;;;8.02;44.14;102119.50;1683995;82;20129;-75
2022/03/14 09:25:12;;;;;;;;;;;;;;;7.99;44.25;102124.18;1701550;82;20107;-75
2022/03/14 09:27:37;;;;;;;;;;;;;;;8.04;44.36;102128.13;1707522;82;20430;-75
2022/03/14 09:30:05;;;;;;;;;;;;;;;8.03;44.11;102118.66;1704951;82;20103;-75
2022/03/14 09:32:31;;;;;;;;;;;;;;;8.00;44.07;102115.61;1701149;82;20109;-75
2022/03/14 09:34:59;;;;;;;;;;;;;;;7.97;44.01;102112.98;1705272;82;20135;-75
2022/03/14 09:37:24;;;;;;;;;;;;;;;8.00;44.14;102117.32;1693973;82;20569;-75
2022/03/14 09:39:50;;;;;;;;;;;;;;;8.03;43.92;102113.09;1695284;82;20158;-75
2022/03/14 09:42:16;;;;;;;;;;;;;;;8.04;43.89;102116.12;1704109;82;20158;-75
2022/03/14 09:44:43;;;;;;;;;;;;;;;8.07;43.84;102121.75;1709060;82;20115;-74
2022/03/14 09:47:09;;;;;;;;;;;;;;;8.05;43.83;102119.56;1697765;82;20139;-75
2022/03/14 09:49:35;;;;;;;;;;;;;;;8.08;43.81;102121.78;1702140;82;20094;-75
2022/03/14 09:52:02;;;;;;;;;;;;;;;8.13;43.69;102120.57;1694410;82;20824;-75
2022/03/14 09:54:29;;;;;;;;;;;;;;;8.18;43.55;102121.52;1699024;82;20084;-75
2022/03/14 09:56:57;;;;;;;;;;;;;;;8.27;43.68;102122.98;1652526;84;20138;-75
2022/03/14 09:59:23;;;;;;;;;;;;;;;8.38;43.83;102118.02;1661862;85;20156;-75
2022/03/14 10:01:50;;;;;;;;;;;;;;;8.44;43.79;102118.11;1663607;84;20136;-75
2022/03/14 10:04:16;;;;;;;;;;;;;;;8.45;43.61;102110.83;1631651;86;20134;-75
2022/03/14 10:06:42;;;;;;;;;;;;;;;8.51;43.30;102099.33;1638834;85;20167;-75
2022/03/14 10:09:08;;;;;;;;;;;;;;;8.56;43.68;102097.70;1636901;86;20209;-75
2022/03/14 10:11:34;;;;;;;;;;;;;;;8.65;43.42;102091.81;1699107;82;20160;-75
2022/03/14 10:14:02;;;;;;;;;;;;;;;8.73;43.52;102091.52;1712003;82;20536;-75
2022/03/14 10:16:31;;;;;;;;;;;;;;;8.77;43.48;102084.27;1698304;82;20581;-75
2022/03/14 10:18:59;;;;;;;;;;;;;;;8.84;43.37;102080.91;1699067;82;20084;-75
2022/03/14 10:21:30;;;;;;;;;;;;;;;8.94;43.33;102082.35;1698497;82;20104;-75
2022/03/14 10:23:59;;;;;;;;;;;;;;;9.04;43.22;102079.91;1710359;82;20115;-75
2022/03/14 10:26:25;;;;;;;;;;;;;;;9.07;43.08;102075.66;1703189;82;20127;-75
2022/03/14 10:28:56;;;;;;;;;;;;;;;9.16;43.18;102083.52;1697367;82;20420;-75
2022/03/14 10:31:31;;;;;;;;;;;;;;;9.28;42.76;102080.23;1696389;82;20659;-74
2022/03/14 10:34:03;;;;;;;;;;;;;;;9.37;42.88;102084.19;1692360;82;20201;-74
2022/03/14 10:36:49;;;;;;;;;;;;;;;9.49;43.13;102089.93;1699404;82;20240;-75
2022/03/14 10:39:25;;;;;;;;;;;;;;;9.55;42.92;102088.72;1713389;82;20540;-75
2022/03/14 10:42:10;;;;;;;;;;;;;;;9.62;42.76;102093.97;1694522;82;20085;-76
2022/03/14 10:44:39;;;;;;;;;;;;;;;9.71;43.00;102089.34;1701326;82;20120;-77
2022/03/14 10:47:07;;;;;;;;;;;;;;;9.83;42.58;102083.02;1704121;82;20770;-77
2022/03/14 10:49:34;;;;;;;;;;;;;;;9.92;42.63;102080.49;1699063;82;20418;-77
2022/03/14 10:52:03;;;;;;;;;;;;;;;10.01;42.84;102083.59;1705151;82;20104;-77
2022/03/14 10:54:29;;;;;;;;;;;;;;;10.10;42.66;102086.70;1696554;82;20092;-77
2022/03/14 10:57:19;;;;;;;;;;;;;;;10.19;42.87;102079.94;1681828;82;20119;-77
2022/03/14 10:59:52;;;;;;;;;;;;;;;10.29;42.55;102079.59;1653139;85;20210;-77
2022/03/14 11:02:21;;;;;;;;;;;;;;;10.39;42.56;102081.40;1692839;82;20546;-76
2022/03/14 11:04:49;;;;;;;;;;;;;;;10.43;42.45;102088.72;1659377;85;20567;-76
2022/03/14 11:07:16;;;;;;;;;;;;;;;10.41;42.47;102079.66;1659012;84;20135;-76
2022/03/14 11:09:50;;;;;;;;;;;;;;;10.46;42.27;102071.52;1645552;85;20424;-76
2022/03/14 11:12:18;;;;;;;;;;;;;;;10.50;42.44;102072.41;1645853;85;20439;-77
2022/03/14 11:14:47;;;;;;;;;;;;;;;10.55;42.17;102081.06;1643913;85;20448;-77
2022/03/14 11:17:16;;;;;;;;;;;;;;;10.58;41.79;102069.45;1634494;85;20408;-77
2022/03/14 11:19:42;;;;;;;;;;;;;;;10.60;41.57;102058.69;1660254;84;20510;-77
2022/03/14 11:22:13;;;;;;;;;;;;;;;10.66;41.88;102061.74;1689238;82;20346;-77
2022/03/14 11:24:42;;;;;;;;;;;;;;;10.66;41.34;102059.16;1661821;84;20458;-77
2022/03/14 11:27:14;;;;;;;;;;;;;;;10.66;41.79;102055.28;1704783;82;20525;-77
2022/03/14 11:29:43;;;;;;;;;;;;;;;10.74;41.14;102050.59;1694808;82;38108;-77
2022/03/14 11:32:09;;;;;;;;;;;;;;;10.86;41.63;102051.96;1699138;82;20533;-77
2022/03/14 11:34:36;;;;;;;;;;;;;;;10.93;40.99;102039.89;1697940;82;20776;-77
2022/03/14 11:37:02;;;;;;;;;;;;;;;11.00;41.37;102044.67;1700933;82;21023;-77
2022/03/14 11:39:29;;;;;;;;;;;;;;;11.05;41.11;102036.50;1691119;82;20548;-77
2022/03/14 11:41:55;;;;;;;;;;;;;;;11.10;40.81;102034.80;1667494;84;20205;-77
2022/03/14 11:44:22;;;;;;;;;;;;;;;11.14;41.08;102038.70;1661362;84;20211;-77
2022/03/14 11:46:49;;;;;;;;;;;;;;;11.18;41.05;102027.94;1660140;85;20455;-77
2022/03/14 11:49:16;;;;;;;;;;;;;;;11.23;41.25;102026.23;1653550;84;20440;-77
2022/03/14 11:51:42;;;;;;;;;;;;;;;11.29;40.96;102026.26;1658417;84;20565;-77
2022/03/14 11:54:14;;;;;;;;;;;;;;;11.34;40.35;102022.39;1692256;82;20500;-77
2022/03/14 11:56:55;;;;;;;;;;;;;;;11.42;40.71;102025.44;1697604;82;20738;-77
2022/03/14 11:59:28;;;;;;;;;;;;;;;11.46;40.23;102034.05;1693487;82;20163;-77
2022/03/14 12:02:00;;;;;;;;;;;;;;;11.47;40.29;102020.24;1691546;82;20462;-77
2022/03/14 12:04:30;;;;;;;;;;;;;;;11.52;40.64;102027.17;1699583;82;20136;-77
2022/03/14 12:07:05;;;;;;;;;;;;;;;11.57;40.13;102013.80;1695598;82;20495;-77
2022/03/14 12:09:35;;;;;;;;;;;;;;;11.63;40.44;102023.74;1644004;84;20135;-77
2022/03/14 12:12:16;;;;;;;;;;;;;;;11.69;40.37;102023.33;1696531;82;20127;-77
2022/03/14 12:14:47;;;;;;;;;;;;;;;11.72;40.48;102011.67;1702278;82;20107;-77
2022/03/14 12:17:17;;;;;;;;;;;;;;;11.78;40.28;102016.89;1698075;82;20096;-77
2022/03/14 12:19:53;;;;;;;;;;;;;;;11.82;40.12;102016.04;1702117;82;20126;-77
2022/03/14 12:22:39;;;;;;;;;;;;;;;11.83;40.08;102012.59;1703782;82;20682;-77
2022/03/14 12:25:08;;;;;;;;;;;;;;;11.88;40.07;102017.34;1659831;85;20120;-77
2022/03/14 12:27:36;;;;;;;;;;;;;;;11.93;40.11;102015.63;1697747;82;20115;-77
2022/03/14 12:30:06;;;;;;;;;;;;;;;11.95;39.77;102017.35;1698597;82;20084;-77
2022/03/14 12:32:40;;;;;;;;;;;;;;;11.98;39.57;102020.78;1659879;84;20116;-77
2022/03/14 12:35:12;;;;;;;;;;;;;;;11.99;39.58;102019.91;1659241;85;20129;-77
2022/03/14 12:37:49;;;;;;;;;;;;;;;12.04;37.94;102023.80;1657855;85;20135;-77
2022/03/14 12:40:22;;;;;;;;;;;;;;;12.09;39.27;102019.06;1654450;84;20140;-77
2022/03/14 12:43:11;;;;;;;;;;;;;;;12.10;39.46;102017.33;1656933;84;20144;-76
2022/03/14 12:45:45;;;;;;;;;;;;;;;12.12;39.43;102017.77;1660288;84;20174;-76
2022/03/14 12:48:24;;;;;;;;;;;;;;;12.16;39.60;102019.92;1641277;86;20187;-77